»·PEaware :: N210AE KRKS-KASE

N210AE :: KRKS-KASE

FLIGHT INFORMATION

Flight Status: Arrived
Operator: Privately registered:
United States
More flights under this callsign
Pilot: Alexander E. (16050)
Aircraft: CESSNA T210 TURBO CENTURION
(T210)
More flights by this aircraft type
Origin: KRKS Rock Springs-Sweetwater
United States
Destination: KASE Aspen-Pitkin Co/Sardy
United States
More flights between these airports :: More routes between these airports
Route: +EKR V108 DBL
File this flight plan on PilotEdge
Remarks:
Altitude:
(Current/Filed)
17,000ft
Speed:
(Current/Filed)
180kts
Departed: 17-Jan-19 09:23 AM
Arrived: 17-Jan-19 10:27 AM
Distance/Time
Traveled:
174nm/1:03
Distance/Time
To Go:
Arrived

Flight Plot

Page will automatically refresh every two minutes.

Flight plan parsing failed; only flown route is shown


Map Options




Map Legend


Flown Route
Filed Route
Departure Airport
Arrival Airport
Navaid (VOR, NDB)
Fix

Horizontal Profiles

Position Reports

Time Latitude Longitude Heading Altitude Ground
Speed
17-Jan-19 08:35 41.599207 -109.064067 314 6737ft 0kts
17-Jan-19 08:36 41.599207 -109.064067 314 6737ft 0kts
17-Jan-19 08:37 41.599207 -109.064067 314 6737ft 0kts
17-Jan-19 08:38 41.599207 -109.064067 314 6737ft 0kts
17-Jan-19 08:39 41.599207 -109.064067 314 6737ft 0kts
17-Jan-19 08:40 41.599207 -109.064067 314 6737ft 0kts
17-Jan-19 08:41 41.599207 -109.064067 314 6737ft 0kts
17-Jan-19 08:43 41.599207 -109.064067 314 6737ft 0kts
17-Jan-19 08:44 41.599207 -109.064067 314 6737ft 0kts
17-Jan-19 08:45 41.599207 -109.064067 314 6737ft 0kts
17-Jan-19 08:46 41.599207 -109.064067 314 6737ft 0kts
17-Jan-19 08:47 41.599207 -109.064067 314 6737ft 0kts
17-Jan-19 08:48 41.599207 -109.064067 314 6737ft 0kts
17-Jan-19 08:49 41.599207 -109.064067 314 6737ft 0kts
17-Jan-19 08:50 41.599207 -109.064067 314 6737ft 0kts
17-Jan-19 08:51 41.599207 -109.064067 314 6737ft 0kts
17-Jan-19 08:52 41.599207 -109.064067 314 6737ft 0kts
17-Jan-19 08:53 41.599207 -109.064067 314 6737ft 0kts
17-Jan-19 08:54 41.599207 -109.064067 314 6737ft 0kts
17-Jan-19 08:55 41.599207 -109.064067 314 6737ft 0kts
17-Jan-19 08:56 41.599207 -109.064067 314 6737ft 0kts
17-Jan-19 08:57 41.599207 -109.064067 314 6737ft 0kts
17-Jan-19 08:58 41.599207 -109.064067 314 6737ft 0kts
17-Jan-19 08:59 41.599207 -109.064067 314 6737ft 0kts
17-Jan-19 09:00 41.599207 -109.064067 314 6737ft 0kts
17-Jan-19 09:01 41.599207 -109.064067 314 6737ft 0kts
17-Jan-19 09:01 41.599207 -109.064067 314 6737ft 0kts
17-Jan-19 09:03 41.599207 -109.064067 314 6737ft 0kts
17-Jan-19 09:03 41.599207 -109.064067 314 6737ft 0kts
17-Jan-19 09:04 41.599207 -109.064067 314 6737ft 0kts
17-Jan-19 09:05 41.599207 -109.064067 314 6737ft 0kts
17-Jan-19 09:07 41.599207 -109.064067 314 6737ft 0kts
17-Jan-19 09:07 41.599207 -109.064067 314 6737ft 0kts
17-Jan-19 09:08 41.599207 -109.064067 314 6737ft 0kts
17-Jan-19 09:10 41.599207 -109.064067 314 6737ft 0kts
17-Jan-19 09:10 41.599207 -109.064067 314 6737ft 0kts
17-Jan-19 09:11 41.599207 -109.064067 314 6737ft 0kts
17-Jan-19 09:12 41.599207 -109.064067 314 6737ft 0kts
17-Jan-19 09:13 41.599207 -109.064067 314 6737ft 0kts
17-Jan-19 09:14 41.599207 -109.064067 314 6737ft 0kts
17-Jan-19 09:15 41.599207 -109.064067 314 6737ft 0kts
17-Jan-19 09:16 41.599207 -109.064067 314 6737ft 0kts
17-Jan-19 09:17 41.599207 -109.064067 314 6737ft 0kts
17-Jan-19 09:18 41.599392 -109.063188 102 6737ft 4kts
17-Jan-19 09:19 41.598921 -109.061109 108 6737ft 0kts
17-Jan-19 09:20 41.598921 -109.061109 108 6737ft 0kts
17-Jan-19 09:21 41.598919 -109.061099 108 6737ft 0kts
17-Jan-19 09:22 41.596313 -109.063204 227 6743ft 62kts
17-Jan-19 09:23 41.576200 -109.089240 232 7277ft 113kts
17-Jan-19 09:24 41.553137 -109.069136 100 8234ft 135kts
17-Jan-19 09:25 41.546323 -109.018964 100 9037ft 139kts
17-Jan-19 09:26 41.547212 -108.967204 92 9838ft 140kts
17-Jan-19 09:27 41.532578 -108.921301 134 10643ft 133kts
17-Jan-19 09:28 41.509712 -108.882766 139 11450ft 132kts
17-Jan-19 09:29 41.486674 -108.845069 140 12256ft 130kts
17-Jan-19 09:30 41.463778 -108.807678 141 13054ft 130kts
17-Jan-19 09:31 41.440802 -108.770203 141 13856ft 131kts
17-Jan-19 09:32 41.417631 -108.732451 142 14661ft 132kts
17-Jan-19 09:33 41.394040 -108.695238 159 15461ft 124kts
17-Jan-19 09:34 41.364063 -108.677826 172 16276ft 118kts
17-Jan-19 09:35 41.333803 -108.660269 171 16990ft 126kts
17-Jan-19 09:36 41.295357 -108.638056 167 17000ft 170kts
17-Jan-19 09:37 41.249998 -108.610944 166 17010ft 183kts
17-Jan-19 09:38 41.203409 -108.583263 166 17011ft 186kts
17-Jan-19 09:39 41.155783 -108.555138 166 17010ft 188kts
17-Jan-19 09:40 41.107904 -108.526904 166 17010ft 188kts
17-Jan-19 09:41 41.060090 -108.498762 166 17010ft 188kts
17-Jan-19 09:42 41.012256 -108.470658 167 17012ft 188kts
17-Jan-19 09:43 40.964640 -108.442728 167 17026ft 187kts
17-Jan-19 09:44 40.917363 -108.415041 167 17059ft 186kts
17-Jan-19 09:45 40.870561 -108.387703 167 17098ft 186kts
17-Jan-19 09:46 40.823050 -108.359986 167 17123ft 187kts
17-Jan-19 09:47 40.775986 -108.332539 168 17127ft 186kts
17-Jan-19 09:48 40.728647 -108.304984 168 17127ft 186kts
17-Jan-19 09:49 40.681455 -108.277576 168 17127ft 186kts
17-Jan-19 09:50 40.634083 -108.250101 168 17127ft 186kts
17-Jan-19 09:51 40.586772 -108.222700 168 17126ft 186kts
17-Jan-19 09:52 40.539503 -108.195366 168 17126ft 186kts
17-Jan-19 09:53 40.492261 -108.168090 168 17127ft 186kts
17-Jan-19 09:54 40.445066 -108.140883 168 17126ft 185kts
17-Jan-19 09:55 40.397762 -108.113653 168 17126ft 185kts
17-Jan-19 09:56 40.350589 -108.087020 168 17129ft 185kts
17-Jan-19 09:57 40.303635 -108.059681 168 17126ft 185kts
17-Jan-19 09:58 40.256735 -108.032716 168 17126ft 184kts
17-Jan-19 09:59 40.209823 -108.005875 168 17126ft 184kts
17-Jan-19 10:00 40.162711 -107.978978 168 17126ft 185kts
17-Jan-19 10:01 40.115628 -107.952130 168 17126ft 185kts
17-Jan-19 10:02 40.068643 -107.924156 155 17121ft 194kts
17-Jan-19 10:03 40.032466 -107.866843 139 17126ft 206kts
17-Jan-19 10:04 39.997236 -107.807714 139 17126ft 206kts
17-Jan-19 10:05 39.961737 -107.748715 139 17127ft 206kts
17-Jan-19 10:06 39.926356 -107.690093 139 17133ft 206kts
17-Jan-19 10:07 39.890977 -107.631587 139 17150ft 206kts
17-Jan-19 10:08 39.855334 -107.572781 139 17168ft 207kts
17-Jan-19 10:09 39.819613 -107.513942 139 17155ft 209kts
17-Jan-19 10:10 39.782939 -107.453644 139 17027ft 211kts
17-Jan-19 10:11 39.746843 -107.394317 139 17050ft 208kts
17-Jan-19 10:12 39.710934 -107.335536 139 17049ft 207kts
17-Jan-19 10:13 39.675149 -107.277006 140 17053ft 206kts
17-Jan-19 10:14 39.639579 -107.219036 140 17054ft 205kts
17-Jan-19 10:15 39.603739 -107.160804 140 16972ft 208kts
17-Jan-19 10:16 39.566235 -107.100012 138 16216ft 222kts
17-Jan-19 10:17 39.528204 -107.038157 138 15408ft 215kts
17-Jan-19 10:18 39.491325 -106.978449 137 14603ft 211kts
17-Jan-19 10:19 39.454807 -106.919435 136 13798ft 208kts
17-Jan-19 10:20 39.408910 -106.890862 182 12997ft 182kts
17-Jan-19 10:21 39.361226 -106.898507 200 12097ft 171kts
17-Jan-19 10:22 39.318022 -106.911900 196 11033ft 142kts
17-Jan-19 10:23 39.284440 -106.896469 166 9227ft 118kts
17-Jan-19 10:24 39.254733 -106.883883 171 8457ft 104kts
17-Jan-19 10:25 39.230708 -106.872415 168 7844ft 71kts
17-Jan-19 10:26 39.225827 -106.868957 69 7839ft 6kts
17-Jan-19 10:27 39.226252 -106.868597 341 7839ft 0kts
17-Jan-19 10:28 39.226252 -106.868597 341 7839ft 0kts
17-Jan-19 10:29 39.226306 -106.868547 250 7839ft 0kts

Navigation Log

Ident Type
Flight plan parsing failed, navigation log unavailable